sensor_id;sensor_type;location;lat;lon;timestamp;temperature;humidity
32895;DHT22;19251;49.484;8.260;2023-01-26T00:01:16;4.90;28.70
32895;DHT22;19251;49.484;8.260;2023-01-26T00:06:19;4.90;28.70
32895;DHT22;19251;49.484;8.260;2023-01-26T00:11:24;4.80;28.00
32895;DHT22;19251;49.484;8.260;2023-01-26T00:16:31;4.80;28.00
32895;DHT22;19251;49.484;8.260;2023-01-26T00:21:33;4.80;28.00
32895;DHT22;19251;49.484;8.260;2023-01-26T00:26:35;4.80;28.60
32895;DHT22;19251;49.484;8.260;2023-01-26T00:36:40;4.80;28.10
32895;DHT22;19251;49.484;8.260;2023-01-26T00:41:42;4.80;28.60
32895;DHT22;19251;49.484;8.260;2023-01-26T00:47:04;4.80;28.50
32895;DHT22;19251;49.484;8.260;2023-01-26T00:52:07;4.80;28.60
32895;DHT22;19251;49.484;8.260;2023-01-26T00:57:09;4.80;28.60
32895;DHT22;19251;49.484;8.260;2023-01-26T01:02:12;4.80;28.50
32895;DHT22;19251;49.484;8.260;2023-01-26T01:07:14;4.80;27.90
32895;DHT22;19251;49.484;8.260;2023-01-26T01:12:17;4.80;27.90
32895;DHT22;19251;49.484;8.260;2023-01-26T01:22:22;4.70;27.90
32895;DHT22;19251;49.484;8.260;2023-01-26T01:27:26;4.60;28.50
32895;DHT22;19251;49.484;8.260;2023-01-26T01:32:28;4.70;27.70
32895;DHT22;19251;49.484;8.260;2023-01-26T01:37:31;4.70;27.70
32895;DHT22;19251;49.484;8.260;2023-01-26T01:42:34;4.60;28.30
32895;DHT22;19251;49.484;8.260;2023-01-26T01:47:36;4.70;28.40
32895;DHT22;19251;49.484;8.260;2023-01-26T01:52:38;4.60;28.30
32895;DHT22;19251;49.484;8.260;2023-01-26T01:57:47;4.70;28.50
32895;DHT22;19251;49.484;8.260;2023-01-26T02:08:15;4.70;28.00
32895;DHT22;19251;49.484;8.260;2023-01-26T02:13:18;4.90;28.10
32895;DHT22;19251;49.484;8.260;2023-01-26T02:18:21;4.70;27.80
32895;DHT22;19251;49.484;8.260;2023-01-26T02:28:47;4.60;27.60
32895;DHT22;19251;49.484;8.260;2023-01-26T02:33:49;4.60;27.70
32895;DHT22;19251;49.484;8.260;2023-01-26T02:43:54;4.60;27.80
32895;DHT22;19251;49.484;8.260;2023-01-26T02:48:57;4.60;28.20
32895;DHT22;19251;49.484;8.260;2023-01-26T02:54:18;4.60;28.00
32895;DHT22;19251;49.484;8.260;2023-01-26T02:59:39;4.60;28.60
32895;DHT22;19251;49.484;8.260;2023-01-26T03:04:41;4.60;28.10
32895;DHT22;19251;49.484;8.260;2023-01-26T03:09:45;4.60;28.60
32895;DHT22;19251;49.484;8.260;2023-01-26T03:14:47;4.70;28.10
32895;DHT22;19251;49.484;8.260;2023-01-26T03:20:10;4.70;28.70
32895;DHT22;19251;49.484;8.260;2023-01-26T03:25:31;4.70;28.50
32895;DHT22;19251;49.484;8.260;2023-01-26T03:30:54;4.60;28.50
32895;DHT22;19251;49.484;8.260;2023-01-26T03:35:58;4.70;28.00
32895;DHT22;19251;49.484;8.260;2023-01-26T03:41:00;4.70;28.50
32895;DHT22;19251;49.484;8.260;2023-01-26T03:46:22;4.60;28.10
32895;DHT22;19251;49.484;8.260;2023-01-26T03:51:45;4.60;28.20
32895;DHT22;19251;49.484;8.260;2023-01-26T03:57:06;4.50;28.30
32895;DHT22;19251;49.484;8.260;2023-01-26T04:02:10;4.60;28.70
32895;DHT22;19251;49.484;8.260;2023-01-26T04:07:32;4.60;28.20
32895;DHT22;19251;49.484;8.260;2023-01-26T04:12:53;4.60;28.30
32895;DHT22;19251;49.484;8.260;2023-01-26T04:18:15;4.60;28.70
32895;DHT22;19251;49.484;8.260;2023-01-26T04:23:35;4.60;28.30
32895;DHT22;19251;49.484;8.260;2023-01-26T04:28:40;4.60;28.30
32895;DHT22;19251;49.484;8.260;2023-01-26T04:33:42;4.60;28.80
32895;DHT22;19251;49.484;8.260;2023-01-26T04:38:45;4.70;28.80
32895;DHT22;19251;49.484;8.260;2023-01-26T04:43:49;4.60;28.20
32895;DHT22;19251;49.484;8.260;2023-01-26T04:48:52;4.70;28.40
32895;DHT22;19251;49.484;8.260;2023-01-26T04:53:55;4.70;28.80
32895;DHT22;19251;49.484;8.260;2023-01-26T04:59:01;4.60;28.50
32895;DHT22;19251;49.484;8.260;2023-01-26T05:04:05;4.80;28.30
32895;DHT22;19251;49.484;8.260;2023-01-26T05:09:08;4.60;29.20
32895;DHT22;19251;49.484;8.260;2023-01-26T05:14:11;4.70;28.40
32895;DHT22;19251;49.484;8.260;2023-01-26T05:19:17;4.60;28.10
32895;DHT22;19251;49.484;8.260;2023-01-26T05:24:19;4.70;28.70
32895;DHT22;19251;49.484;8.260;2023-01-26T05:29:22;4.60;28.70
32895;DHT22;19251;49.484;8.260;2023-01-26T05:34:24;4.60;28.30
32895;DHT22;19251;49.484;8.260;2023-01-26T05:39:27;4.60;28.30
32895;DHT22;19251;49.484;8.260;2023-01-26T05:44:31;5.10;29.20
32895;DHT22;19251;49.484;8.260;2023-01-26T05:49:34;4.60;28.80
32895;DHT22;19251;49.484;8.260;2023-01-26T05:54:36;4.60;28.30
32895;DHT22;19251;49.484;8.260;2023-01-26T05:59:39;4.90;29.00
32895;DHT22;19251;49.484;8.260;2023-01-26T06:04:42;4.60;28.30
32895;DHT22;19251;49.484;8.260;2023-01-26T06:09:45;4.60;28.80
32895;DHT22;19251;49.484;8.260;2023-01-26T06:14:48;4.70;28.80
32895;DHT22;19251;49.484;8.260;2023-01-26T06:19:51;4.60;28.90
32895;DHT22;19251;49.484;8.260;2023-01-26T06:24:54;4.60;28.90
32895;DHT22;19251;49.484;8.260;2023-01-26T06:29:56;4.80;29.00
32895;DHT22;19251;49.484;8.260;2023-01-26T06:34:58;4.90;29.00
32895;DHT22;19251;49.484;8.260;2023-01-26T06:40:00;4.70;28.80
32895;DHT22;19251;49.484;8.260;2023-01-26T06:45:03;4.60;28.80
32895;DHT22;19251;49.484;8.260;2023-01-26T06:50:06;4.60;28.50
32895;DHT22;19251;49.484;8.260;2023-01-26T06:55:33;4.60;28.80
32895;DHT22;19251;49.484;8.260;2023-01-26T07:00:40;4.60;28.30
32895;DHT22;19251;49.484;8.260;2023-01-26T07:05:46;4.60;28.80
32895;DHT22;19251;49.484;8.260;2023-01-26T07:10:49;4.50;28.70
32895;DHT22;19251;49.484;8.260;2023-01-26T07:15:51;4.40;28.70
32895;DHT22;19251;49.484;8.260;2023-01-26T07:21:11;4.40;28.10
32895;DHT22;19251;49.484;8.260;2023-01-26T07:26:14;4.40;28.70
32895;DHT22;19251;49.484;8.260;2023-01-26T07:31:16;4.40;28.70
32895;DHT22;19251;49.484;8.260;2023-01-26T07:36:18;4.40;28.10
32895;DHT22;19251;49.484;8.260;2023-01-26T07:46:23;4.50;28.20
32895;DHT22;19251;49.484;8.260;2023-01-26T07:51:25;4.40;28.80
32895;DHT22;19251;49.484;8.260;2023-01-26T07:56:27;4.60;28.80
32895;DHT22;19251;49.484;8.260;2023-01-26T08:01:29;4.50;28.60
32895;DHT22;19251;49.484;8.260;2023-01-26T08:06:31;4.70;28.90
32895;DHT22;19251;49.484;8.260;2023-01-26T08:11:34;4.60;28.60
32895;DHT22;19251;49.484;8.260;2023-01-26T08:16:36;4.40;27.60
32895;DHT22;19251;49.484;8.260;2023-01-26T08:21:38;4.40;28.20
32895;DHT22;19251;49.484;8.260;2023-01-26T08:26:40;4.40;27.60
32895;DHT22;19251;49.484;8.260;2023-01-26T08:31:42;4.40;28.30
32895;DHT22;19251;49.484;8.260;2023-01-26T08:36:45;4.40;28.10
32895;DHT22;19251;49.484;8.260;2023-01-26T08:41:47;4.40;27.80
32895;DHT22;19251;49.484;8.260;2023-01-26T08:46:49;4.50;27.60
32895;DHT22;19251;49.484;8.260;2023-01-26T08:51:51;4.60;28.40
32895;DHT22;19251;49.484;8.260;2023-01-26T08:56:53;4.60;27.30
32895;DHT22;19251;49.484;8.260;2023-01-26T09:01:56;4.50;27.50
32895;DHT22;19251;49.484;8.260;2023-01-26T09:06:58;4.80;27.60
32895;DHT22;19251;49.484;8.260;2023-01-26T09:12:00;4.60;27.40
32895;DHT22;19251;49.484;8.260;2023-01-26T09:17:03;4.60;27.20
32895;DHT22;19251;49.484;8.260;2023-01-26T09:22:05;4.60;26.80
32895;DHT22;19251;49.484;8.260;2023-01-26T09:27:07;4.80;27.50
32895;DHT22;19251;49.484;8.260;2023-01-26T09:32:10;4.60;25.70
32895;DHT22;19251;49.484;8.260;2023-01-26T09:37:13;4.60;26.80
32895;DHT22;19251;49.484;8.260;2023-01-26T09:53:13;4.60;27.00
32895;DHT22;19251;49.484;8.260;2023-01-26T09:58:36;4.70;26.60
32895;DHT22;19251;49.484;8.260;2023-01-26T10:03:43;4.70;26.50
32895;DHT22;19251;49.484;8.260;2023-01-26T10:08:48;4.80;25.90
32895;DHT22;19251;49.484;8.260;2023-01-26T10:13:56;4.80;26.50
32895;DHT22;19251;49.484;8.260;2023-01-26T10:19:13;4.80;26.40
32895;DHT22;19251;49.484;8.260;2023-01-26T10:24:20;4.70;25.60
32895;DHT22;19251;49.484;8.260;2023-01-26T10:29:24;4.80;26.20
32895;DHT22;19251;49.484;8.260;2023-01-26T10:34:27;4.80;24.70
32895;DHT22;19251;49.484;8.260;2023-01-26T10:39:29;4.80;25.00
32895;DHT22;19251;49.484;8.260;2023-01-26T10:44:37;4.70;24.70
32895;DHT22;19251;49.484;8.260;2023-01-26T10:49:40;4.70;24.60
32895;DHT22;19251;49.484;8.260;2023-01-26T10:54:46;4.80;25.20
32895;DHT22;19251;49.484;8.260;2023-01-26T11:00:00;4.70;24.60
32895;DHT22;19251;49.484;8.260;2023-01-26T11:10:25;4.60;24.40
32895;DHT22;19251;49.484;8.260;2023-01-26T11:15:39;4.60;25.20
32895;DHT22;19251;49.484;8.260;2023-01-26T11:20:49;4.60;25.40
32895;DHT22;19251;49.484;8.260;2023-01-26T11:26:29;4.70;25.40
32895;DHT22;19251;49.484;8.260;2023-01-26T11:53:04;4.80;24.00
32895;DHT22;19251;49.484;8.260;2023-01-26T12:08:51;5.10;25.10
32895;DHT22;19251;49.484;8.260;2023-01-26T12:19:09;4.80;23.70
32895;DHT22;19251;49.484;8.260;2023-01-26T12:24:19;4.80;24.20
32895;DHT22;19251;49.484;8.260;2023-01-26T12:29:48;4.80;24.10
32895;DHT22;19251;49.484;8.260;2023-01-26T12:34:53;4.80;23.30
32895;DHT22;19251;49.484;8.260;2023-01-26T12:45:17;4.70;23.80
32895;DHT22;19251;49.484;8.260;2023-01-26T12:50:45;4.90;24.20
32895;DHT22;19251;49.484;8.260;2023-01-26T12:55:48;4.70;23.00
32895;DHT22;19251;49.484;8.260;2023-01-26T13:01:05;4.70;23.10
32895;DHT22;19251;49.484;8.260;2023-01-26T13:16:40;4.60;23.60
32895;DHT22;19251;49.484;8.260;2023-01-26T13:21:43;4.60;23.60
32895;DHT22;19251;49.484;8.260;2023-01-26T13:26:50;4.60;23.60
32895;DHT22;19251;49.484;8.260;2023-01-26T13:31:54;4.70;24.00
32895;DHT22;19251;49.484;8.260;2023-01-26T13:37:04;4.80;23.60
32895;DHT22;19251;49.484;8.260;2023-01-26T13:42:21;4.70;23.00
32895;DHT22;19251;49.484;8.260;2023-01-26T13:47:36;4.70;22.50
32895;DHT22;19251;49.484;8.260;2023-01-26T13:52:41;4.70;22.40
32895;DHT22;19251;49.484;8.260;2023-01-26T13:57:43;4.60;22.40
32895;DHT22;19251;49.484;8.260;2023-01-26T14:02:47;4.60;22.40
32895;DHT22;19251;49.484;8.260;2023-01-26T14:07:52;4.60;22.90
32895;DHT22;19251;49.484;8.260;2023-01-26T14:13:02;4.60;22.40
32895;DHT22;19251;49.484;8.260;2023-01-26T14:18:05;4.60;22.40
32895;DHT22;19251;49.484;8.260;2023-01-26T14:23:13;4.60;23.20
32895;DHT22;19251;49.484;8.260;2023-01-26T14:28:19;4.60;23.10
32895;DHT22;19251;49.484;8.260;2023-01-26T14:33:22;4.60;22.40
32895;DHT22;19251;49.484;8.260;2023-01-26T14:38:32;4.60;22.40
32895;DHT22;19251;49.484;8.260;2023-01-26T14:49:03;4.60;22.40
32895;DHT22;19251;49.484;8.260;2023-01-26T14:54:24;4.60;22.40
32895;DHT22;19251;49.484;8.260;2023-01-26T14:59:34;4.60;23.00
32895;DHT22;19251;49.484;8.260;2023-01-26T15:04:38;4.70;23.20
32895;DHT22;19251;49.484;8.260;2023-01-26T15:09:41;4.70;23.00
32895;DHT22;19251;49.484;8.260;2023-01-26T15:14:57;4.80;23.30
32895;DHT22;19251;49.484;8.260;2023-01-26T15:20:00;4.70;22.60
32895;DHT22;19251;49.484;8.260;2023-01-26T15:25:15;4.70;23.10
32895;DHT22;19251;49.484;8.260;2023-01-26T15:30:36;4.80;23.10
32895;DHT22;19251;49.484;8.260;2023-01-26T15:35:39;4.70;23.10
32895;DHT22;19251;49.484;8.260;2023-01-26T15:40:41;4.70;23.00
32895;DHT22;19251;49.484;8.260;2023-01-26T15:50:49;4.60;23.10
32895;DHT22;19251;49.484;8.260;2023-01-26T15:55:52;4.50;22.30
32895;DHT22;19251;49.484;8.260;2023-01-26T16:00:56;4.40;22.20
32895;DHT22;19251;49.484;8.260;2023-01-26T16:05:59;4.60;23.30
32895;DHT22;19251;49.484;8.260;2023-01-26T16:11:01;2.50;21.00
32895;DHT22;19251;49.484;8.260;2023-01-26T16:16:03;4.70;23.50
32895;DHT22;19251;49.484;8.260;2023-01-26T16:21:17;4.40;22.40
32895;DHT22;19251;49.484;8.260;2023-01-26T16:26:20;4.30;23.20
32895;DHT22;19251;49.484;8.260;2023-01-26T16:31:28;4.30;23.40
32895;DHT22;19251;49.484;8.260;2023-01-26T16:36:31;4.30;23.50
32895;DHT22;19251;49.484;8.260;2023-01-26T16:41:33;4.30;23.30
32895;DHT22;19251;49.484;8.260;2023-01-26T16:46:35;4.20;22.90
32895;DHT22;19251;49.484;8.260;2023-01-26T16:51:38;4.20;23.60
32895;DHT22;19251;49.484;8.260;2023-01-26T16:56:40;4.20;23.80
32895;DHT22;19251;49.484;8.260;2023-01-26T17:01:43;4.00;23.10
32895;DHT22;19251;49.484;8.260;2023-01-26T17:06:45;4.00;23.40
32895;DHT22;19251;49.484;8.260;2023-01-26T17:11:47;4.00;24.10
32895;DHT22;19251;49.484;8.260;2023-01-26T17:16:49;4.00;24.20
32895;DHT22;19251;49.484;8.260;2023-01-26T17:21:51;4.00;24.00
32895;DHT22;19251;49.484;8.260;2023-01-26T17:26:54;3.90;24.30
32895;DHT22;19251;49.484;8.260;2023-01-26T17:31:56;4.30;24.50
32895;DHT22;19251;49.484;8.260;2023-01-26T17:36:58;4.10;24.10
32895;DHT22;19251;49.484;8.260;2023-01-26T17:42:01;4.10;24.60
32895;DHT22;19251;49.484;8.260;2023-01-26T17:52:06;4.20;24.40
32895;DHT22;19251;49.484;8.260;2023-01-26T17:57:09;4.20;24.80
32895;DHT22;19251;49.484;8.260;2023-01-26T18:02:11;4.10;24.70
32895;DHT22;19251;49.484;8.260;2023-01-26T18:07:13;4.10;24.90
32895;DHT22;19251;49.484;8.260;2023-01-26T18:12:15;4.10;24.60
32895;DHT22;19251;49.484;8.260;2023-01-26T18:17:17;4.10;24.60
32895;DHT22;19251;49.484;8.260;2023-01-26T18:22:19;4.30;25.10
32895;DHT22;19251;49.484;8.260;2023-01-26T18:27:22;4.10;25.00
32895;DHT22;19251;49.484;8.260;2023-01-26T18:32:24;4.10;25.20
32895;DHT22;19251;49.484;8.260;2023-01-26T18:37:27;4.20;25.60
32895;DHT22;19251;49.484;8.260;2023-01-26T18:42:29;4.10;25.60
32895;DHT22;19251;49.484;8.260;2023-01-26T18:47:31;4.10;25.30
32895;DHT22;19251;49.484;8.260;2023-01-26T18:52:34;4.10;25.50
32895;DHT22;19251;49.484;8.260;2023-01-26T18:57:36;4.10;25.90
32895;DHT22;19251;49.484;8.260;2023-01-26T19:02:38;4.40;26.20
32895;DHT22;19251;49.484;8.260;2023-01-26T19:07:40;4.00;25.50
32895;DHT22;19251;49.484;8.260;2023-01-26T19:12:42;4.10;25.70
32895;DHT22;19251;49.484;8.260;2023-01-26T19:17:44;4.10;25.90
32895;DHT22;19251;49.484;8.260;2023-01-26T19:22:47;4.10;25.80
32895;DHT22;19251;49.484;8.260;2023-01-26T19:27:54;4.10;26.00
32895;DHT22;19251;49.484;8.260;2023-01-26T19:32:56;4.10;26.10
32895;DHT22;19251;49.484;8.260;2023-01-26T19:38:17;5.40;27.30
32895;DHT22;19251;49.484;8.260;2023-01-26T19:43:20;4.10;26.50
32895;DHT22;19251;49.484;8.260;2023-01-26T19:48:26;4.10;26.80
32895;DHT22;19251;49.484;8.260;2023-01-26T19:53:33;4.10;26.30
32895;DHT22;19251;49.484;8.260;2023-01-26T19:58:37;4.10;26.90
32895;DHT22;19251;49.484;8.260;2023-01-26T20:03:39;4.30;26.40
32895;DHT22;19251;49.484;8.260;2023-01-26T20:13:44;4.10;27.00
32895;DHT22;19251;49.484;8.260;2023-01-26T20:18:46;4.20;27.10
32895;DHT22;19251;49.484;8.260;2023-01-26T20:23:48;4.30;27.10
32895;DHT22;19251;49.484;8.260;2023-01-26T20:28:56;4.20;26.90
32895;DHT22;19251;49.484;8.260;2023-01-26T20:33:59;4.20;27.00
32895;DHT22;19251;49.484;8.260;2023-01-26T20:39:03;4.20;27.00
32895;DHT22;19251;49.484;8.260;2023-01-26T20:44:06;4.20;27.10
32895;DHT22;19251;49.484;8.260;2023-01-26T20:49:13;4.20;27.10
32895;DHT22;19251;49.484;8.260;2023-01-26T20:54:16;4.20;27.20
32895;DHT22;19251;49.484;8.260;2023-01-26T20:59:18;4.20;27.40
32895;DHT22;19251;49.484;8.260;2023-01-26T21:04:22;4.20;27.50
32895;DHT22;19251;49.484;8.260;2023-01-26T21:09:25;4.50;27.30
32895;DHT22;19251;49.484;8.260;2023-01-26T21:14:27;4.10;27.40
32895;DHT22;19251;49.484;8.260;2023-01-26T21:19:29;4.20;27.00
32895;DHT22;19251;49.484;8.260;2023-01-26T21:24:34;4.10;27.10
32895;DHT22;19251;49.484;8.260;2023-01-26T21:34:42;4.20;27.20
32895;DHT22;19251;49.484;8.260;2023-01-26T21:39:44;4.20;27.60
32895;DHT22;19251;49.484;8.260;2023-01-26T21:50:08;4.20;27.40
32895;DHT22;19251;49.484;8.260;2023-01-26T21:55:11;4.20;27.40
32895;DHT22;19251;49.484;8.260;2023-01-26T22:00:13;4.10;27.40
32895;DHT22;19251;49.484;8.260;2023-01-26T22:05:16;4.20;27.40
32895;DHT22;19251;49.484;8.260;2023-01-26T22:10:18;4.20;27.80
32895;DHT22;19251;49.484;8.260;2023-01-26T22:15:20;4.20;27.70
32895;DHT22;19251;49.484;8.260;2023-01-26T22:20:22;4.20;28.00
32895;DHT22;19251;49.484;8.260;2023-01-26T22:25:24;4.20;27.70
32895;DHT22;19251;49.484;8.260;2023-01-26T22:30:26;4.20;27.60
32895;DHT22;19251;49.484;8.260;2023-01-26T22:35:30;4.30;27.80
32895;DHT22;19251;49.484;8.260;2023-01-26T22:40:32;4.30;27.80
32895;DHT22;19251;49.484;8.260;2023-01-26T22:45:34;4.30;28.20
32895;DHT22;19251;49.484;8.260;2023-01-26T22:50:37;4.30;28.00
32895;DHT22;19251;49.484;8.260;2023-01-26T22:55:40;4.60;28.30
32895;DHT22;19251;49.484;8.260;2023-01-26T23:00:43;4.30;27.80
32895;DHT22;19251;49.484;8.260;2023-01-26T23:05:45;4.20;27.70
32895;DHT22;19251;49.484;8.260;2023-01-26T23:10:48;4.40;28.10
32895;DHT22;19251;49.484;8.260;2023-01-26T23:15:50;4.20;28.00
32895;DHT22;19251;49.484;8.260;2023-01-26T23:25:57;4.20;28.00
32895;DHT22;19251;49.484;8.260;2023-01-26T23:31:00;4.10;27.90
32895;DHT22;19251;49.484;8.260;2023-01-26T23:36:04;4.40;28.60
32895;DHT22;19251;49.484;8.260;2023-01-26T23:46:10;4.10;28.40
32895;DHT22;19251;49.484;8.260;2023-01-26T23:51:12;4.10;27.90
32895;DHT22;19251;49.484;8.260;2023-01-26T23:56:16;4.10;27.90
